createdAt,value
2023-01-30T00:02:21.150Z,42.18
2023-01-30T00:04:48.370Z,41.02
2023-01-30T00:07:15.506Z,41.08
2023-01-30T00:09:42.682Z,41.21
2023-01-30T00:12:09.883Z,41.56
2023-01-30T00:14:38.587Z,41.12
2023-01-30T00:17:05.741Z,41.82
2023-01-30T00:19:32.865Z,40.94
2023-01-30T00:22:00.263Z,40.79
2023-01-30T00:24:27.588Z,40.95
2023-01-30T00:26:54.863Z,40.54
2023-01-30T00:29:21.989Z,40.53
2023-01-30T00:31:50.643Z,40.55
2023-01-30T00:34:17.963Z,40.16
2023-01-30T00:36:47.715Z,39.76
2023-01-30T00:39:16.643Z,40.48
2023-01-30T00:41:43.763Z,40.89
2023-01-30T00:44:10.863Z,40.14
2023-01-30T00:46:38.087Z,39.96
2023-01-30T00:49:06.674Z,40.32
2023-01-30T00:51:33.823Z,40.68
2023-01-30T00:54:01.075Z,40.26
2023-01-30T00:56:28.422Z,39.95
2023-01-30T00:58:55.622Z,40.28
2023-01-30T01:01:22.790Z,40.87
2023-01-30T01:03:49.964Z,40.14
2023-01-30T01:06:18.591Z,40.39
2023-01-30T01:08:45.739Z,40.05
2023-01-30T01:11:12.870Z,40.84
2023-01-30T01:13:39.943Z,40.19
2023-01-30T01:16:07.306Z,39.52
2023-01-30T01:18:34.383Z,39.79
2023-01-30T01:21:01.545Z,39.36
2023-01-30T01:23:30.083Z,39.61
2023-01-30T01:26:01.627Z,40.02
2023-01-30T01:28:28.790Z,40.30
2023-01-30T01:30:56.000Z,40.31
2023-01-30T01:33:27.003Z,39.93
2023-01-30T01:35:55.984Z,40.31
2023-01-30T01:38:23.683Z,40.23
2023-01-30T01:40:52.266Z,40.33
2023-01-30T01:43:22.371Z,40.41
2023-01-30T01:45:55.887Z,40.86
2023-01-30T01:48:29.171Z,40.90
2023-01-30T01:51:01.784Z,40.49
2023-01-30T01:53:34.805Z,40.77
2023-01-30T01:56:06.026Z,41.19
2023-01-30T01:58:42.307Z,40.50
2023-01-30T02:01:09.413Z,40.58
2023-01-30T02:03:42.852Z,40.23
2023-01-30T02:06:14.015Z,40.41
2023-01-30T02:08:47.456Z,41.16
2023-01-30T02:11:27.374Z,40.71
2023-01-30T02:13:57.098Z,40.27
2023-01-30T02:16:24.340Z,40.79
2023-01-30T02:18:52.792Z,41.13
2023-01-30T02:21:51.568Z,40.58
2023-01-30T02:24:43.160Z,40.48
2023-01-30T02:27:48.583Z,41.53
2023-01-30T02:30:52.248Z,41.28
2023-01-30T02:33:34.506Z,41.12
2023-01-30T02:36:14.459Z,40.45
2023-01-30T02:38:54.162Z,41.38
2023-01-30T02:41:34.879Z,41.23
2023-01-30T02:44:06.741Z,41.34
2023-01-30T02:46:45.292Z,41.42
2023-01-30T02:49:20.966Z,41.46
2023-01-30T02:51:51.880Z,41.08
2023-01-30T02:54:19.123Z,41.30
2023-01-30T02:56:49.488Z,41.49
2023-01-30T02:59:24.399Z,41.65
2023-01-30T03:02:30.416Z,41.36
2023-01-30T03:05:21.166Z,41.23
2023-01-30T03:07:58.552Z,41.96
2023-01-30T03:10:37.725Z,41.89
2023-01-30T03:13:14.997Z,41.83
2023-01-30T03:15:50.168Z,41.37
2023-01-30T03:18:19.846Z,41.57
2023-01-30T03:20:47.649Z,41.26
2023-01-30T03:23:14.794Z,41.67
2023-01-30T03:25:46.389Z,41.52
2023-01-30T03:28:18.109Z,41.20
2023-01-30T03:30:45.267Z,41.72
2023-01-30T03:33:12.445Z,41.80
2023-01-30T03:35:41.400Z,41.35
2023-01-30T03:38:08.707Z,44.02
2023-01-30T03:40:35.925Z,43.03
2023-01-30T03:43:03.156Z,41.18
2023-01-30T03:45:30.273Z,42.66
2023-01-30T03:47:57.407Z,42.87
2023-01-30T03:50:24.665Z,44.69
2023-01-30T03:52:54.026Z,43.02
2023-01-30T03:55:21.241Z,42.83
2023-01-30T03:57:48.368Z,42.08
2023-01-30T04:00:16.771Z,42.05
2023-01-30T04:02:44.556Z,41.44
2023-01-30T04:05:11.648Z,41.09
2023-01-30T04:07:38.747Z,40.97
2023-01-30T04:10:08.576Z,39.00
2023-01-30T04:12:35.744Z,39.80
2023-01-30T04:15:02.845Z,40.31
2023-01-30T04:17:30.045Z,38.62
2023-01-30T04:19:57.129Z,39.60
2023-01-30T04:22:24.453Z,39.35
2023-01-30T04:24:51.592Z,41.32
2023-01-30T04:27:20.207Z,39.62
2023-01-30T04:29:47.284Z,39.70
2023-01-30T04:32:14.347Z,40.74
2023-01-30T04:34:41.506Z,39.23
2023-01-30T04:37:08.688Z,39.84
2023-01-30T04:39:35.987Z,41.71
2023-01-30T04:42:03.185Z,41.81
2023-01-30T04:44:31.830Z,39.60
2023-01-30T04:46:59.039Z,39.04
2023-01-30T04:49:26.367Z,37.58
2023-01-30T04:51:53.491Z,40.31
2023-01-30T04:54:21.004Z,39.30
2023-01-30T04:56:48.105Z,39.17
2023-01-30T04:59:15.709Z,38.97
2023-01-30T05:01:44.290Z,39.23
2023-01-30T05:04:11.785Z,40.16
2023-01-30T05:06:39.005Z,39.12
2023-01-30T05:09:07.145Z,38.38
2023-01-30T05:11:34.890Z,38.94
2023-01-30T05:14:02.085Z,38.74
2023-01-30T05:16:30.683Z,38.71
2023-01-30T05:18:59.311Z,40.81
2023-01-30T05:21:28.608Z,39.77
2023-01-30T05:23:56.809Z,37.31
2023-01-30T05:26:24.476Z,38.11
2023-01-30T05:28:53.203Z,37.95
2023-01-30T05:31:20.517Z,38.95
2023-01-30T05:33:50.156Z,38.95
2023-01-30T05:36:21.652Z,38.85
2023-01-30T05:38:48.906Z,40.38
2023-01-30T05:41:17.299Z,39.69
2023-01-30T05:43:48.785Z,38.21
2023-01-30T05:46:15.953Z,38.06
2023-01-30T05:48:43.104Z,38.35
2023-01-30T05:51:18.684Z,39.08
2023-01-30T05:53:46.545Z,38.07
2023-01-30T05:56:13.685Z,38.30
2023-01-30T05:58:41.567Z,41.12
2023-01-30T06:01:12.809Z,38.54
2023-01-30T06:03:40.158Z,37.33
2023-01-30T06:06:08.224Z,37.54
2023-01-30T06:08:36.940Z,38.76
2023-01-30T06:11:07.030Z,39.22
2023-01-30T06:13:34.896Z,37.49
2023-01-30T06:16:02.113Z,37.15
2023-01-30T06:18:29.507Z,38.92
2023-01-30T06:20:57.150Z,38.04
2023-01-30T06:23:24.608Z,37.79
2023-01-30T06:25:54.082Z,39.47
2023-01-30T06:28:23.027Z,41.08
2023-01-30T06:30:50.676Z,37.98
2023-01-30T06:33:18.525Z,38.27
2023-01-30T06:35:48.545Z,38.79
2023-01-30T06:38:15.685Z,40.27
2023-01-30T06:40:46.216Z,38.58
2023-01-30T06:43:15.999Z,39.88
2023-01-30T06:45:43.920Z,39.35
2023-01-30T06:48:11.909Z,38.80
2023-01-30T06:50:39.216Z,39.16
2023-01-30T06:53:08.602Z,38.83
2023-01-30T06:55:36.257Z,39.13
2023-01-30T06:58:06.311Z,38.79
2023-01-30T07:00:36.243Z,39.43
2023-01-30T07:03:03.759Z,38.70
2023-01-30T07:05:31.100Z,38.81
2023-01-30T07:07:58.459Z,38.46
2023-01-30T07:10:25.720Z,40.66
2023-01-30T07:12:53.039Z,39.28
2023-01-30T07:15:20.720Z,38.52
2023-01-30T07:17:49.701Z,38.94
2023-01-30T07:20:17.340Z,39.74
2023-01-30T07:22:50.809Z,41.04
2023-01-30T07:25:18.693Z,38.51
2023-01-30T07:27:50.880Z,39.57
2023-01-30T07:30:18.477Z,40.34
2023-01-30T07:32:51.679Z,39.67
2023-01-30T07:35:19.465Z,38.65
2023-01-30T07:37:47.761Z,39.02
2023-01-30T07:40:15.461Z,39.50
2023-01-30T07:42:42.908Z,40.13
2023-01-30T07:45:11.248Z,41.05
2023-01-30T07:47:38.549Z,42.18
2023-01-30T07:50:09.103Z,39.88
2023-01-30T07:52:36.245Z,40.66
2023-01-30T07:55:03.483Z,40.31
2023-01-30T07:57:30.680Z,40.90
2023-01-30T07:59:57.864Z,39.69
2023-01-30T08:02:25.100Z,39.63
2023-01-30T08:04:52.434Z,39.45
2023-01-30T08:07:21.101Z,39.46
2023-01-30T08:09:48.281Z,40.74
2023-01-30T08:12:15.400Z,39.24
2023-01-30T08:14:42.548Z,39.33
2023-01-30T08:17:09.822Z,39.84
2023-01-30T08:19:36.959Z,39.15
2023-01-30T08:22:04.140Z,40.31
2023-01-30T08:24:32.820Z,38.35
2023-01-30T08:27:00.040Z,37.66
2023-01-30T08:29:27.204Z,39.64
2023-01-30T08:31:58.266Z,39.14
2023-01-30T08:34:25.504Z,38.94
2023-01-30T08:36:53.064Z,38.98
2023-01-30T08:39:20.519Z,38.61
2023-01-30T08:41:49.219Z,38.23
2023-01-30T08:44:16.419Z,39.24
2023-01-30T08:46:43.609Z,38.03
2023-01-30T08:49:11.197Z,39.44
2023-01-30T08:51:38.739Z,39.58
2023-01-30T08:54:06.120Z,39.58
2023-01-30T08:56:33.479Z,45.45
2023-01-30T08:59:02.538Z,42.16
2023-01-30T09:01:29.802Z,38.56
2023-01-30T09:03:57.688Z,37.69
2023-01-30T09:06:26.276Z,37.23
2023-01-30T09:08:53.748Z,37.21
2023-01-30T09:11:20.939Z,35.67
2023-01-30T09:13:49.600Z,34.55
2023-01-30T09:16:18.681Z,34.51
2023-01-30T09:18:45.979Z,33.52
2023-01-30T09:21:14.088Z,34.92
2023-01-30T09:23:41.882Z,34.84
2023-01-30T09:26:09.061Z,36.86
2023-01-30T09:28:36.338Z,36.65
2023-01-30T09:31:04.145Z,36.71
2023-01-30T09:33:32.948Z,38.38
2023-01-30T09:36:00.177Z,37.27
2023-01-30T09:38:27.364Z,36.83
2023-01-30T09:41:31.487Z,37.41
2023-01-30T09:44:22.699Z,36.86
2023-01-30T09:46:58.300Z,36.86
2023-01-30T09:49:43.335Z,38.11
2023-01-30T09:52:27.351Z,37.71
2023-01-30T09:55:02.703Z,37.96
2023-01-30T09:57:30.104Z,38.05
2023-01-30T10:00:06.384Z,37.41
2023-01-30T10:02:47.801Z,38.17
2023-01-30T10:05:17.012Z,37.78
2023-01-30T10:08:09.682Z,36.90
2023-01-30T10:10:55.056Z,36.76
2023-01-30T10:13:50.744Z,34.88
2023-01-30T10:16:27.285Z,34.44
2023-01-30T10:19:35.171Z,35.03
2023-01-30T10:22:17.841Z,32.78
2023-01-30T10:24:59.304Z,32.96
2023-01-30T10:27:31.529Z,32.66
2023-01-30T10:30:04.847Z,33.37
2023-01-30T10:32:41.925Z,33.50
2023-01-30T10:35:19.279Z,33.52
2023-01-30T10:37:58.418Z,33.79
2023-01-30T10:40:33.845Z,33.62
2023-01-30T10:43:12.363Z,33.61
2023-01-30T10:45:50.551Z,34.25
2023-01-30T10:48:45.982Z,33.09
2023-01-30T10:51:25.659Z,33.66
2023-01-30T10:54:02.835Z,33.16
2023-01-30T10:56:39.883Z,32.67
2023-01-30T10:59:24.960Z,31.52
2023-01-30T11:02:02.901Z,32.10
2023-01-30T11:04:37.512Z,31.78
2023-01-30T11:07:05.104Z,32.36
2023-01-30T11:09:42.199Z,31.46
2023-01-30T11:12:09.461Z,31.24
2023-01-30T11:14:54.253Z,31.31
2023-01-30T11:17:30.428Z,31.51
2023-01-30T11:20:04.978Z,32.34
2023-01-30T11:22:35.741Z,32.86
2023-01-30T11:25:07.367Z,30.94
2023-01-30T11:27:35.442Z,32.86
2023-01-30T11:30:13.967Z,33.13
2023-01-30T11:32:43.701Z,32.11
2023-01-30T11:35:29.970Z,32.29
2023-01-30T11:38:13.002Z,32.73
2023-01-30T11:40:41.823Z,32.05
2023-01-30T11:43:13.338Z,33.05
2023-01-30T11:45:45.417Z,33.35
2023-01-30T11:48:33.260Z,33.40
2023-01-30T11:51:09.557Z,33.58
2023-01-30T11:53:41.657Z,33.17
2023-01-30T11:56:19.346Z,33.42
2023-01-30T11:58:56.964Z,32.96
2023-01-30T12:01:27.165Z,33.48
2023-01-30T12:03:56.818Z,32.59
2023-01-30T12:06:29.779Z,32.23
2023-01-30T12:08:58.712Z,33.11
2023-01-30T12:11:43.123Z,32.66
2023-01-30T12:14:25.735Z,32.91
2023-01-30T12:17:12.338Z,33.02
2023-01-30T12:19:52.571Z,32.99
2023-01-30T12:22:29.143Z,33.90
2023-01-30T12:25:00.188Z,33.31
2023-01-30T12:27:47.515Z,33.12
2023-01-30T12:30:30.564Z,33.11
2023-01-30T12:35:59.946Z,34.04
2023-01-30T12:38:41.677Z,33.17
2023-01-30T12:41:28.431Z,33.86
2023-01-30T12:44:19.030Z,32.96
2023-01-30T12:47:07.749Z,33.57
2023-01-30T12:50:02.636Z,33.43
2023-01-30T12:52:46.070Z,33.45
2023-01-30T12:55:30.784Z,33.10
2023-01-30T12:58:04.356Z,33.26
2023-01-30T13:00:50.926Z,32.81
2023-01-30T13:03:30.780Z,32.87
2023-01-30T13:06:11.039Z,33.98
2023-01-30T13:08:52.724Z,32.81
2023-01-30T13:11:41.781Z,33.63
2023-01-30T13:14:21.243Z,34.25
2023-01-30T13:17:24.699Z,33.72
2023-01-30T13:20:02.088Z,35.12
2023-01-30T13:22:38.634Z,34.93
2023-01-30T13:25:21.699Z,34.90
2023-01-30T13:27:55.813Z,34.93
2023-01-30T13:30:24.390Z,34.38
2023-01-30T13:32:58.710Z,34.13
2023-01-30T13:35:32.523Z,34.99
2023-01-30T13:38:03.391Z,35.39
2023-01-30T13:40:38.577Z,35.06
2023-01-30T13:43:16.391Z,34.71
2023-01-30T13:45:47.185Z,35.02
2023-01-30T13:48:33.479Z,35.22
2023-01-30T13:51:31.252Z,35.38
2023-01-30T13:54:06.930Z,34.91
2023-01-30T13:56:44.634Z,35.31
2023-01-30T13:59:22.796Z,35.60
2023-01-30T14:02:18.660Z,35.13
2023-01-30T14:04:52.774Z,35.41
2023-01-30T14:07:30.055Z,36.24
2023-01-30T14:10:14.473Z,35.35
2023-01-30T14:12:44.952Z,45.03
2023-01-30T14:15:29.939Z,41.89
2023-01-30T14:18:03.171Z,37.22
2023-01-30T14:20:35.420Z,33.13
2023-01-30T14:23:14.724Z,31.09
2023-01-30T14:25:48.737Z,28.33
2023-01-30T14:28:49.213Z,30.07
2023-01-30T14:31:47.360Z,31.15
2023-01-30T14:34:40.096Z,32.46
2023-01-30T14:37:30.332Z,32.93
2023-01-30T14:39:58.851Z,33.76
2023-01-30T14:42:28.232Z,34.24
2023-01-30T14:45:04.137Z,34.88
2023-01-30T14:47:43.398Z,34.93
2023-01-30T14:50:22.307Z,35.10
2023-01-30T14:52:56.815Z,34.36
2023-01-30T14:55:27.250Z,35.07
2023-01-30T14:57:59.077Z,35.90
2023-01-30T15:00:30.950Z,36.05
2023-01-30T15:03:03.470Z,35.87
2023-01-30T15:05:39.068Z,35.69
2023-01-30T15:08:16.133Z,36.39
2023-01-30T15:11:12.594Z,36.87
2023-01-30T15:13:48.839Z,36.86
2023-01-30T15:16:45.835Z,36.85
2023-01-30T15:19:46.332Z,36.84
2023-01-30T15:22:26.171Z,36.94
2023-01-30T15:25:33.652Z,37.73
2023-01-30T15:28:16.873Z,37.07
2023-01-30T15:30:55.669Z,37.58
2023-01-30T15:33:31.003Z,36.91
2023-01-30T15:35:59.530Z,36.89
2023-01-30T15:38:29.890Z,37.14
2023-01-30T15:41:01.878Z,37.30
2023-01-30T15:44:00.351Z,37.13
2023-01-30T15:46:42.453Z,37.29
2023-01-30T15:49:38.847Z,37.53
2023-01-30T15:52:14.981Z,36.82
2023-01-30T15:54:49.903Z,37.36
2023-01-30T15:57:29.779Z,37.71
2023-01-30T15:59:58.704Z,37.36
2023-01-30T16:02:31.586Z,36.70
2023-01-30T16:05:07.371Z,37.64
2023-01-30T16:07:34.558Z,37.65
2023-01-30T16:10:08.836Z,38.08
2023-01-30T16:12:37.477Z,37.52
2023-01-30T16:15:18.861Z,37.76
2023-01-30T16:17:59.036Z,38.13
2023-01-30T16:20:26.609Z,38.18
2023-01-30T16:22:54.374Z,38.25
2023-01-30T16:25:26.596Z,38.17
2023-01-30T16:27:55.541Z,38.09
2023-01-30T16:30:28.991Z,38.27
2023-01-30T16:32:57.328Z,38.54
2023-01-30T16:35:32.631Z,38.85
2023-01-30T16:38:02.186Z,38.68
2023-01-30T16:40:31.740Z,38.97
2023-01-30T16:43:02.529Z,38.72
2023-01-30T16:46:24.885Z,38.22
2023-01-30T16:48:52.108Z,38.19
2023-01-30T16:51:23.141Z,38.17
2023-01-30T16:53:58.653Z,38.35
2023-01-30T16:56:27.623Z,38.56
2023-01-30T16:59:00.290Z,38.74
2023-01-30T17:01:40.603Z,38.33
2023-01-30T17:04:18.955Z,38.13
2023-01-30T17:06:52.915Z,38.18
2023-01-30T17:09:47.253Z,38.79
2023-01-30T17:12:38.037Z,38.80
2023-01-30T17:15:41.514Z,38.78
2023-01-30T17:18:10.131Z,39.09
2023-01-30T17:20:41.891Z,39.07
2023-01-30T17:23:17.307Z,38.45
2023-01-30T17:25:49.364Z,39.09
2023-01-30T17:28:20.027Z,38.60
2023-01-30T17:30:48.371Z,38.27
2023-01-30T17:33:17.131Z,38.69
2023-01-30T17:35:45.391Z,38.95
2023-01-30T17:38:12.628Z,39.15
2023-01-30T17:40:40.410Z,39.28
2023-01-30T17:43:07.553Z,39.50
2023-01-30T17:45:36.241Z,39.30
2023-01-30T17:48:03.451Z,39.34
2023-01-30T17:50:32.074Z,39.53
2023-01-30T17:52:59.180Z,39.30
2023-01-30T17:55:26.512Z,39.22
2023-01-30T17:57:53.682Z,38.86
2023-01-30T18:00:22.347Z,38.95
2023-01-30T18:02:50.675Z,39.06
2023-01-30T18:05:17.863Z,39.08
2023-01-30T18:07:46.489Z,39.59
2023-01-30T18:10:18.945Z,39.67
2023-01-30T18:12:46.873Z,39.68
2023-01-30T18:15:16.719Z,39.50
2023-01-30T18:17:47.748Z,38.84
2023-01-30T18:20:18.265Z,39.37
2023-01-30T18:22:47.577Z,38.97
2023-01-30T18:25:15.840Z,39.31
2023-01-30T18:27:44.882Z,39.24
2023-01-30T18:30:16.859Z,39.24
2023-01-30T18:32:52.385Z,38.96
2023-01-30T18:35:20.096Z,39.33
2023-01-30T18:37:49.233Z,39.01
2023-01-30T18:40:16.420Z,39.35
2023-01-30T18:42:43.606Z,39.34
2023-01-30T18:45:11.334Z,39.71
2023-01-30T18:47:38.576Z,39.37
2023-01-30T18:50:06.805Z,39.57
2023-01-30T18:52:34.182Z,40.01
2023-01-30T18:55:02.853Z,40.09
2023-01-30T18:57:30.024Z,39.42
2023-01-30T18:59:57.311Z,39.45
2023-01-30T19:02:24.573Z,39.67
2023-01-30T19:04:51.807Z,39.74
2023-01-30T19:07:18.968Z,39.73
2023-01-30T19:09:46.142Z,39.92
2023-01-30T19:12:15.063Z,39.58
2023-01-30T19:14:42.225Z,39.43
2023-01-30T19:17:09.368Z,39.64
2023-01-30T19:19:36.658Z,39.99
2023-01-30T19:22:04.082Z,39.90
2023-01-30T19:24:31.284Z,40.06
2023-01-30T19:26:58.442Z,40.36
2023-01-30T19:29:27.181Z,40.29
2023-01-30T19:31:54.506Z,40.23
2023-01-30T19:34:21.944Z,40.51
2023-01-30T19:36:49.180Z,41.38
2023-01-30T19:39:16.502Z,41.13
2023-01-30T19:41:43.662Z,41.25
2023-01-30T19:44:12.608Z,41.09
2023-01-30T19:46:41.453Z,41.00
2023-01-30T19:49:10.967Z,41.63
2023-01-30T19:51:38.178Z,41.09
2023-01-30T19:54:09.122Z,41.46
2023-01-30T19:56:36.344Z,41.67
2023-01-30T19:59:04.268Z,41.74
2023-01-30T20:01:34.042Z,41.27
2023-01-30T20:04:03.872Z,41.23
2023-01-30T20:06:33.123Z,40.82
2023-01-30T20:09:03.901Z,40.75
2023-01-30T20:11:33.260Z,40.84
2023-01-30T20:14:00.682Z,40.96
2023-01-30T20:16:28.204Z,41.38
2023-01-30T20:18:57.505Z,41.01
2023-01-30T20:21:27.890Z,41.07
2023-01-30T20:23:56.187Z,41.30
2023-01-30T20:26:26.827Z,41.20
2023-01-30T20:28:56.443Z,41.16
2023-01-30T20:31:26.678Z,41.31
2023-01-30T20:33:54.541Z,41.39
2023-01-30T20:36:23.972Z,41.34
2023-01-30T20:38:54.063Z,41.36
2023-01-30T20:41:24.601Z,41.42
2023-01-30T20:43:54.503Z,41.61
2023-01-30T20:46:23.810Z,41.96
2023-01-30T20:48:54.550Z,42.25
2023-01-30T20:51:24.885Z,42.13
2023-01-30T20:53:56.135Z,51.56
2023-01-30T20:56:26.163Z,38.81
2023-01-30T20:58:54.009Z,34.51
2023-01-30T21:01:25.054Z,32.30
2023-01-30T21:03:54.657Z,30.25
2023-01-30T21:06:41.962Z,29.56
2023-01-30T21:09:14.633Z,31.55
2023-01-30T21:11:41.881Z,33.22
2023-01-30T21:14:08.986Z,34.54
2023-01-30T21:16:38.255Z,36.05
2023-01-30T21:19:11.135Z,36.77
2023-01-30T21:21:45.709Z,38.16
2023-01-30T21:24:17.531Z,39.14
2023-01-30T21:26:46.900Z,39.51
2023-01-30T21:29:18.389Z,39.61
2023-01-30T21:31:46.729Z,39.35
2023-01-30T21:34:15.327Z,39.73
2023-01-30T21:36:42.699Z,39.90
2023-01-30T21:39:15.125Z,40.16
2023-01-30T21:41:46.145Z,40.65
2023-01-30T21:44:14.524Z,40.95
2023-01-30T21:46:45.106Z,41.46
2023-01-30T21:49:13.283Z,41.80
2023-01-30T21:51:41.728Z,42.07
2023-01-30T21:54:09.726Z,42.19
2023-01-30T21:56:40.111Z,41.93
2023-01-30T21:59:10.222Z,42.12
2023-01-30T22:01:41.995Z,42.39
2023-01-30T22:04:11.785Z,42.35
2023-01-30T22:06:39.071Z,42.57
2023-01-30T22:09:06.702Z,42.57
2023-01-30T22:11:36.454Z,42.54
2023-01-30T22:14:05.303Z,42.51
2023-01-30T22:16:33.862Z,42.63
2023-01-30T22:19:03.758Z,42.59
2023-01-30T22:21:33.879Z,42.50
2023-01-30T22:24:02.763Z,42.36
2023-01-30T22:26:30.556Z,42.43
2023-01-30T22:29:00.051Z,42.41
2023-01-30T22:31:31.564Z,42.50
2023-01-30T22:33:58.872Z,42.31
2023-01-30T22:36:28.588Z,42.13
2023-01-30T22:38:56.297Z,42.01
2023-01-30T22:41:25.186Z,42.36
2023-01-30T22:43:54.734Z,42.00
2023-01-30T22:46:23.826Z,42.13
2023-01-30T22:48:53.044Z,42.43
2023-01-30T22:51:22.888Z,42.55
2023-01-30T22:53:52.882Z,42.59
2023-01-30T22:56:22.830Z,42.66
2023-01-30T22:58:50.543Z,42.52
2023-01-30T23:01:20.092Z,42.56
2023-01-30T23:03:49.213Z,42.90
2023-01-30T23:06:18.161Z,42.49
2023-01-30T23:08:47.785Z,42.80
2023-01-30T23:11:17.827Z,42.59
2023-01-30T23:13:47.104Z,42.53
2023-01-30T23:16:16.322Z,42.32
2023-01-30T23:18:43.576Z,42.09
2023-01-30T23:21:12.301Z,42.00
2023-01-30T23:23:41.601Z,41.71
2023-01-30T23:26:09.522Z,41.85
2023-01-30T23:28:37.775Z,41.56
2023-01-30T23:31:10.689Z,41.28
2023-01-30T23:33:38.824Z,41.54
2023-01-30T23:36:10.353Z,41.13
2023-01-30T23:38:37.882Z,41.42
2023-01-30T23:41:09.835Z,41.44
2023-01-30T23:43:37.961Z,41.51
2023-01-30T23:46:14.479Z,41.30
2023-01-30T23:48:42.061Z,41.51
2023-01-30T23:51:09.761Z,41.25
2023-01-30T23:53:37.423Z,41.53
2023-01-30T23:56:08.326Z,41.31
2023-01-30T23:58:36.504Z,41.43
